Time;durP1;ratioP1;P1;durP2;ratioP2;P2;SDS_P1;SDS_P2;PMS_P1;PMS_P2;Temp;Humidity;BMP_temperature;BMP_pressure;BME280_temperature;BME280_humidity;BME280_pressure;Samples;Min_cycle;Max_cycle;Signal;HPM_P1;HPM_P2
2022/09/14 00:00:48;;;;;;;341.43;322.77;;;;;;;;;;5095223;28;20455;-81
2022/09/14 00:03:16;;;;;;;372.20;343.57;;;;;;;;;;5094947;28;20432;-81
2022/09/14 00:05:45;;;;;;;345.13;324.70;;;;;;;;;;5095014;28;20534;-81
2022/09/14 00:08:12;;;;;;;378.30;350.73;;;;;;;;;;5094564;28;20468;-80
2022/09/14 00:10:40;;;;;;;360.83;339.90;;;;;;;;;;5094974;28;20510;-80
2022/09/14 00:13:08;;;;;;;285.57;271.70;;;;;;;;;;5094532;28;20457;-81
2022/09/14 00:15:36;;;;;;;395.73;371.37;;;;;;;;;;5095372;28;20452;-80
2022/09/14 00:18:04;;;;;;;380.13;354.77;;;;;;;;;;5094633;28;20467;-81
2022/09/14 00:20:31;;;;;;;379.07;353.00;;;;;;;;;;5095231;28;20468;-80
2022/09/14 00:23:00;;;;;;;395.50;368.43;;;;;;;;;;5094733;28;20850;-80
2022/09/14 00:25:28;;;;;;;298.40;283.10;;;;;;;;;;5094884;28;20788;-80
2022/09/14 00:27:55;;;;;;;247.80;235.97;;;;;;;;;;5094734;28;20416;-81
2022/09/14 00:30:23;;;;;;;21.87;20.40;;;;;;;;;;5094603;28;20460;-81
2022/09/14 00:32:51;;;;;;;77.23;72.97;;;;;;;;;;5094211;28;20490;-80
2022/09/14 00:35:18;;;;;;;21.17;19.87;;;;;;;;;;5095096;28;20454;-81
2022/09/14 00:37:55;;;;;;;21.33;19.83;;;;;;;;;;5095334;28;20433;-80
2022/09/14 00:40:24;;;;;;;21.80;20.20;;;;;;;;;;5094874;28;20451;-80
2022/09/14 00:42:51;;;;;;;22.80;21.10;;;;;;;;;;5094689;28;20926;-80
2022/09/14 00:45:20;;;;;;;22.60;20.70;;;;;;;;;;5095097;28;20433;-80
2022/09/14 00:47:48;;;;;;;374.07;349.27;;;;;;;;;;5095096;28;20450;-80
2022/09/14 00:50:16;;;;;;;378.03;349.10;;;;;;;;;;5095424;28;20452;-80
2022/09/14 00:52:45;;;;;;;421.70;384.53;;;;;;;;;;5095271;28;20475;-80
2022/09/14 00:55:14;;;;;;;406.40;367.20;;;;;;;;;;5097696;28;20447;-80
2022/09/14 00:57:45;;;;;;;390.50;361.23;;;;;;;;;;5096439;28;20408;-81
2022/09/14 01:00:13;;;;;;;389.47;359.70;;;;;;;;;;5098639;28;20483;-81
2022/09/14 01:02:41;;;;;;;390.63;359.70;;;;;;;;;;5097634;28;20460;-81
2022/09/14 01:05:09;;;;;;;406.03;372.70;;;;;;;;;;5098151;28;20434;-81
2022/09/14 01:07:43;;;;;;;385.63;359.20;;;;;;;;;;5099464;28;20448;-81
2022/09/14 01:10:16;;;;;;;332.20;313.03;;;;;;;;;;5098251;28;21044;-81
2022/09/14 01:12:50;;;;;;;322.93;305.27;;;;;;;;;;5098779;28;20557;-81
2022/09/14 01:15:21;;;;;;;379.23;353.10;;;;;;;;;;5101682;28;20502;-81
2022/09/14 01:17:52;;;;;;;75.23;70.80;;;;;;;;;;5102251;28;20397;-81
2022/09/14 01:20:25;;;;;;;29.20;27.37;;;;;;;;;;5101430;28;20498;-81
2022/09/14 01:22:57;;;;;;;21.03;19.63;;;;;;;;;;5103068;28;20512;-80
2022/09/14 01:25:33;;;;;;;21.03;19.53;;;;;;;;;;5106153;28;20435;-81
2022/09/14 01:28:04;;;;;;;295.37;281.63;;;;;;;;;;5097853;28;20450;-81
2022/09/14 01:30:33;;;;;;;395.73;368.73;;;;;;;;;;5097449;28;20432;-81
2022/09/14 01:33:04;;;;;;;399.97;370.93;;;;;;;;;;5097501;28;20466;-81
2022/09/14 01:35:34;;;;;;;408.03;375.87;;;;;;;;;;5097568;28;20803;-81
2022/09/14 01:38:04;;;;;;;369.37;347.80;;;;;;;;;;5097241;28;20483;-81
2022/09/14 01:40:33;;;;;;;348.03;330.17;;;;;;;;;;5097139;28;20908;-81
2022/09/14 01:43:04;;;;;;;356.03;337.67;;;;;;;;;;5096473;28;20549;-82
2022/09/14 01:45:33;;;;;;;356.87;338.27;;;;;;;;;;5096692;28;20964;-81
2022/09/14 01:48:01;;;;;;;309.70;294.23;;;;;;;;;;5097246;28;20465;-81
2022/09/14 01:50:32;;;;;;;419.23;383.27;;;;;;;;;;5097061;28;20408;-81
2022/09/14 01:53:01;;;;;;;423.10;395.90;;;;;;;;;;5095937;28;20546;-81
2022/09/14 01:55:31;;;;;;;386.17;364.60;;;;;;;;;;5097293;28;20458;-81
2022/09/14 01:58:01;;;;;;;373.77;352.13;;;;;;;;;;5096568;28;20415;-81
2022/09/14 02:00:31;;;;;;;414.30;389.17;;;;;;;;;;5096905;28;20412;-81
2022/09/14 02:03:00;;;;;;;404.10;371.40;;;;;;;;;;5095509;28;20584;-80
2022/09/14 02:05:32;;;;;;;435.63;403.67;;;;;;;;;;5095987;28;20433;-80
2022/09/14 02:07:59;;;;;;;445.00;414.47;;;;;;;;;;5096439;28;20429;-81
2022/09/14 02:10:27;;;;;;;55.10;52.47;;;;;;;;;;5096574;28;20476;-81
2022/09/14 02:12:55;;;;;;;358.73;337.50;;;;;;;;;;5099390;28;20467;-79
2022/09/14 02:15:24;;;;;;;203.87;195.00;;;;;;;;;;5096049;28;20444;-81
2022/09/14 02:17:53;;;;;;;82.93;79.47;;;;;;;;;;5096502;28;20800;-81
2022/09/14 02:20:23;;;;;;;163.13;156.60;;;;;;;;;;5096921;28;20491;-81
2022/09/14 02:22:51;;;;;;;28.33;26.77;;;;;;;;;;5097030;28;20437;-80
2022/09/14 02:25:19;;;;;;;25.30;23.47;;;;;;;;;;5094881;28;20417;-81
2022/09/14 02:27:47;;;;;;;223.37;212.43;;;;;;;;;;5095981;28;20429;-81
2022/09/14 02:30:15;;;;;;;295.77;281.10;;;;;;;;;;5095928;28;20440;-81
2022/09/14 02:32:48;;;;;;;24.90;22.97;;;;;;;;;;5095404;28;20477;-82
2022/09/14 02:35:19;;;;;;;22.13;20.23;;;;;;;;;;5095737;28;20914;-81
2022/09/14 02:37:50;;;;;;;22.37;20.50;;;;;;;;;;5095678;28;20445;-81
2022/09/14 02:40:24;;;;;;;274.33;261.20;;;;;;;;;;5095165;28;20430;-81
2022/09/14 02:42:58;;;;;;;75.73;72.50;;;;;;;;;;5095317;28;20400;-81
2022/09/14 02:45:28;;;;;;;21.40;20.20;;;;;;;;;;5095142;28;20421;-81
2022/09/14 02:47:59;;;;;;;32.57;30.83;;;;;;;;;;5096755;28;20470;-81
2022/09/14 02:50:30;;;;;;;316.77;299.83;;;;;;;;;;5095618;28;20461;-81
2022/09/14 02:53:00;;;;;;;21.07;19.57;;;;;;;;;;5095416;28;20435;-80
2022/09/14 02:55:30;;;;;;;37.63;35.73;;;;;;;;;;5094591;28;20441;-81
2022/09/14 02:58:02;;;;;;;22.37;20.50;;;;;;;;;;5095380;28;20901;-80
2022/09/14 03:00:30;;;;;;;26.30;24.17;;;;;;;;;;5095254;28;20434;-81
2022/09/14 03:02:57;;;;;;;21.03;19.63;;;;;;;;;;5094995;28;20451;-81
2022/09/14 03:05:24;;;;;;;20.17;19.00;;;;;;;;;;5094893;28;20440;-81
2022/09/14 03:07:59;;;;;;;393.23;362.07;;;;;;;;;;5095443;28;20479;-80
2022/09/14 03:10:26;;;;;;;388.03;354.90;;;;;;;;;;5094848;28;20478;-80
2022/09/14 03:12:54;;;;;;;384.70;354.13;;;;;;;;;;5094996;28;20493;-81
2022/09/14 03:15:21;;;;;;;413.53;375.53;;;;;;;;;;5094565;28;20475;-81
2022/09/14 03:17:48;;;;;;;349.60;326.17;;;;;;;;;;5095246;28;20464;-80
2022/09/14 03:20:16;;;;;;;386.50;347.50;;;;;;;;;;5094585;28;20445;-80
2022/09/14 03:22:44;;;;;;;354.47;330.33;;;;;;;;;;5094604;28;20441;-81
2022/09/14 03:25:13;;;;;;;344.30;321.37;;;;;;;;;;5096104;28;20976;-81
2022/09/14 03:27:40;;;;;;;359.67;335.13;;;;;;;;;;5095165;28;20550;-80
2022/09/14 03:30:08;;;;;;;20.63;19.43;;;;;;;;;;5094792;28;20474;-81
2022/09/14 03:32:36;;;;;;;21.83;19.90;;;;;;;;;;5095197;28;20452;-80
2022/09/14 03:35:03;;;;;;;20.87;19.47;;;;;;;;;;5096970;28;20425;-81
2022/09/14 03:37:31;;;;;;;22.67;20.87;;;;;;;;;;5094482;28;20427;-80
2022/09/14 03:39:58;;;;;;;22.00;20.30;;;;;;;;;;5094723;28;20471;-81
2022/09/14 03:42:27;;;;;;;23.43;21.00;;;;;;;;;;5094247;28;20457;-81
2022/09/14 03:44:54;;;;;;;21.73;20.00;;;;;;;;;;5094679;28;20424;-80
2022/09/14 03:47:22;;;;;;;24.30;21.80;;;;;;;;;;5094321;28;20446;-81
2022/09/14 03:49:49;;;;;;;20.97;19.27;;;;;;;;;;5095142;28;20464;-80
2022/09/14 03:52:17;;;;;;;21.33;19.73;;;;;;;;;;5094269;28;20472;-81
2022/09/14 03:54:44;;;;;;;22.50;20.77;;;;;;;;;;5095021;28;20431;-81
2022/09/14 03:57:11;;;;;;;33.77;31.77;;;;;;;;;;5094282;28;20461;-81
2022/09/14 03:59:40;;;;;;;20.83;19.60;;;;;;;;;;5094999;28;20454;-81
2022/09/14 04:02:07;;;;;;;27.70;26.17;;;;;;;;;;5094299;28;20921;-81
2022/09/14 04:04:35;;;;;;;22.43;20.80;;;;;;;;;;5094563;28;20465;-81
2022/09/14 04:07:02;;;;;;;20.73;19.33;;;;;;;;;;5094427;28;20468;-81
2022/09/14 04:09:29;;;;;;;22.80;20.90;;;;;;;;;;5094904;28;20475;-81
2022/09/14 04:11:57;;;;;;;22.43;20.60;;;;;;;;;;5094109;28;20949;-81
2022/09/14 04:14:24;;;;;;;21.37;19.77;;;;;;;;;;5094692;28;20442;-81
2022/09/14 04:16:53;;;;;;;21.03;19.73;;;;;;;;;;5094212;28;20462;-81
2022/09/14 04:19:20;;;;;;;21.17;19.47;;;;;;;;;;5094792;28;20429;-81
2022/09/14 04:21:48;;;;;;;22.30;20.70;;;;;;;;;;5094796;28;20898;-81
2022/09/14 04:24:15;;;;;;;21.93;20.53;;;;;;;;;;5095324;28;20450;-81
2022/09/14 04:26:49;;;;;;;21.73;20.23;;;;;;;;;;5094653;28;20988;-82
2022/09/14 04:29:16;;;;;;;387.23;349.97;;;;;;;;;;5095637;28;20440;-81
2022/09/14 04:31:44;;;;;;;382.47;346.70;;;;;;;;;;5094818;28;20450;-80
2022/09/14 04:34:14;;;;;;;379.00;341.33;;;;;;;;;;5094262;28;20484;-81
2022/09/14 04:36:49;;;;;;;22.57;20.37;;;;;;;;;;5094000;28;20416;-81
2022/09/14 04:39:17;;;;;;;372.03;343.57;;;;;;;;;;5093476;28;20464;-82
2022/09/14 04:41:44;;;;;;;374.50;333.27;;;;;;;;;;5094329;28;20453;-81
2022/09/14 04:44:12;;;;;;;21.43;20.03;;;;;;;;;;5095688;28;20455;-81
2022/09/14 04:46:40;;;;;;;21.70;20.20;;;;;;;;;;5094718;28;20445;-84
2022/09/14 04:49:08;;;;;;;411.17;374.30;;;;;;;;;;5099485;28;20456;-84
2022/09/14 04:51:37;;;;;;;395.77;363.50;;;;;;;;;;5098176;28;20491;-82
2022/09/14 04:54:08;;;;;;;366.23;332.43;;;;;;;;;;5098569;28;20501;-82
2022/09/14 04:56:36;;;;;;;405.93;337.67;;;;;;;;;;5098462;28;20424;-82
2022/09/14 04:59:04;;;;;;;388.90;354.90;;;;;;;;;;5098110;28;20849;-82
2022/09/14 05:01:33;;;;;;;343.67;310.70;;;;;;;;;;5098135;28;20454;-81
2022/09/14 05:04:01;;;;;;;223.67;202.87;;;;;;;;;;5098598;28;20456;-82
2022/09/14 05:06:29;;;;;;;21.73;20.20;;;;;;;;;;5098516;28;20518;-83
2022/09/14 05:08:58;;;;;;;24.67;22.20;;;;;;;;;;5098293;28;20452;-82
2022/09/14 05:11:27;;;;;;;37.10;35.37;;;;;;;;;;5098130;28;20507;-81
2022/09/14 05:13:55;;;;;;;42.07;39.57;;;;;;;;;;5098074;28;20490;-81
2022/09/14 05:16:23;;;;;;;70.67;67.47;;;;;;;;;;5098749;28;20822;-82
2022/09/14 05:18:52;;;;;;;102.27;97.77;;;;;;;;;;5098297;28;20454;-81
2022/09/14 05:21:20;;;;;;;21.70;20.20;;;;;;;;;;5098084;28;20432;-81
2022/09/14 05:23:48;;;;;;;20.60;19.20;;;;;;;;;;5098228;28;20442;-82
2022/09/14 05:26:16;;;;;;;72.73;69.10;;;;;;;;;;5097875;28;20423;-81
2022/09/14 05:28:43;;;;;;;22.20;20.70;;;;;;;;;;5098010;28;20425;-81
2022/09/14 05:31:13;;;;;;;23.47;21.63;;;;;;;;;;5098777;28;20423;-82
2022/09/14 05:33:40;;;;;;;21.60;20.10;;;;;;;;;;5099655;28;20550;-82
2022/09/14 05:36:08;;;;;;;20.93;19.53;;;;;;;;;;5097985;28;20433;-81
2022/09/14 05:38:37;;;;;;;21.30;19.77;;;;;;;;;;5097832;28;20471;-80
2022/09/14 05:41:04;;;;;;;22.30;20.40;;;;;;;;;;5098334;28;20429;-82
2022/09/14 05:43:33;;;;;;;20.47;19.27;;;;;;;;;;5097916;28;20791;-82
2022/09/14 05:46:02;;;;;;;22.07;20.07;;;;;;;;;;5098302;28;20748;-82
2022/09/14 05:48:31;;;;;;;21.53;19.93;;;;;;;;;;5097669;28;20506;-82
2022/09/14 05:50:59;;;;;;;26.33;21.47;;;;;;;;;;5097496;28;20430;-82
2022/09/14 05:53:26;;;;;;;21.97;20.20;;;;;;;;;;5097676;28;20476;-82
2022/09/14 05:56:00;;;;;;;20.80;19.20;;;;;;;;;;5098039;28;20460;-82
2022/09/14 05:58:28;;;;;;;19.63;18.37;;;;;;;;;;5097628;28;20449;-82
2022/09/14 06:00:56;;;;;;;21.53;19.83;;;;;;;;;;5097348;28;20461;-82
2022/09/14 06:03:24;;;;;;;21.73;19.80;;;;;;;;;;5104715;28;20443;-81
2022/09/14 06:05:53;;;;;;;20.40;18.83;;;;;;;;;;5104174;28;20452;-82
2022/09/14 06:08:22;;;;;;;21.57;19.87;;;;;;;;;;5097449;28;20949;-82
2022/09/14 06:10:50;;;;;;;20.47;19.03;;;;;;;;;;5097038;28;20849;-82
2022/09/14 06:13:17;;;;;;;20.70;19.20;;;;;;;;;;5097872;28;20953;-82
2022/09/14 06:15:44;;;;;;;21.27;19.60;;;;;;;;;;5097674;28;20473;-82
2022/09/14 06:18:13;;;;;;;21.40;19.57;;;;;;;;;;5097962;28;20451;-82
2022/09/14 06:20:41;;;;;;;19.33;18.13;;;;;;;;;;5097098;28;20475;-82
2022/09/14 06:23:08;;;;;;;20.13;18.83;;;;;;;;;;5096636;28;20858;-82
2022/09/14 06:25:35;;;;;;;23.10;20.80;;;;;;;;;;5097072;28;20416;-82
2022/09/14 06:28:03;;;;;;;21.47;19.93;;;;;;;;;;5097330;28;20797;-82
2022/09/14 06:30:31;;;;;;;20.67;19.40;;;;;;;;;;5096359;28;20439;-81
2022/09/14 06:32:58;;;;;;;21.50;19.77;;;;;;;;;;5096719;28;20521;-81
2022/09/14 06:35:27;;;;;;;20.40;19.10;;;;;;;;;;5096811;28;20431;-82
2022/09/14 06:37:54;;;;;;;21.03;19.63;;;;;;;;;;5096609;28;20425;-82
2022/09/14 06:40:22;;;;;;;22.73;21.13;;;;;;;;;;5096271;28;20485;-82
2022/09/14 06:42:49;;;;;;;21.67;20.23;;;;;;;;;;5096236;28;20408;-81
2022/09/14 06:45:16;;;;;;;21.63;19.83;;;;;;;;;;5096719;28;20438;-82
2022/09/14 06:47:44;;;;;;;21.73;20.33;;;;;;;;;;5096362;28;20420;-82
2022/09/14 06:50:11;;;;;;;21.90;20.03;;;;;;;;;;5096527;28;20473;-81
2022/09/14 06:52:40;;;;;;;21.67;20.27;;;;;;;;;;5095728;28;20473;-82
2022/09/14 06:55:07;;;;;;;24.03;22.87;;;;;;;;;;5096739;28;20449;-82
2022/09/14 06:57:36;;;;;;;21.50;20.03;;;;;;;;;;5096515;28;20500;-82
2022/09/14 07:00:04;;;;;;;23.20;21.07;;;;;;;;;;5097009;28;20490;-82
2022/09/14 07:02:32;;;;;;;21.00;19.60;;;;;;;;;;5095759;28;21057;-81
2022/09/14 07:04:59;;;;;;;21.80;20.50;;;;;;;;;;5096473;28;20417;-81
2022/09/14 07:07:27;;;;;;;22.30;20.57;;;;;;;;;;5096597;28;20477;-81
2022/09/14 07:09:56;;;;;;;21.50;20.17;;;;;;;;;;5096440;28;20466;-82
2022/09/14 07:12:23;;;;;;;483.77;342.83;;;;;;;;;;5095262;28;20468;-82
2022/09/14 07:14:50;;;;;;;20.73;19.33;;;;;;;;;;5095830;28;20488;-82
2022/09/14 07:17:19;;;;;;;21.93;20.53;;;;;;;;;;5096280;28;20453;-81
2022/09/14 07:19:46;;;;;;;23.53;22.13;;;;;;;;;;5096219;28;20471;-81
2022/09/14 07:22:14;;;;;;;21.70;20.20;;;;;;;;;;5096020;28;20419;-81
2022/09/14 07:24:41;;;;;;;21.20;19.10;;;;;;;;;;5096357;28;20445;-81
2022/09/14 07:27:10;;;;;;;400.83;354.77;;;;;;;;;;5095883;28;20403;-81
2022/09/14 07:29:37;;;;;;;474.63;363.70;;;;;;;;;;5095969;28;20475;-82
2022/09/14 07:32:05;;;;;;;498.80;346.80;;;;;;;;;;5095849;28;20434;-82
2022/09/14 07:34:32;;;;;;;488.80;354.87;;;;;;;;;;5095310;28;20566;-81
2022/09/14 07:37:00;;;;;;;485.00;353.33;;;;;;;;;;5096217;28;20471;-81
2022/09/14 07:39:27;;;;;;;475.57;319.40;;;;;;;;;;5096233;28;20484;-81
2022/09/14 07:41:54;;;;;;;476.40;337.07;;;;;;;;;;5095971;28;20812;-82
2022/09/14 07:44:23;;;;;;;489.50;363.57;;;;;;;;;;5095080;28;20478;-82
2022/09/14 07:46:51;;;;;;;484.27;351.33;;;;;;;;;;5095447;28;20439;-81
2022/09/14 07:49:18;;;;;;;483.98;325.45;;;;;;;;;;5095649;28;20442;-82
2022/09/14 07:51:46;;;;;;;481.40;345.17;;;;;;;;;;5095599;28;20212;-82
2022/09/14 07:54:15;;;;;;;445.73;372.37;;;;;;;;;;5095432;28;21022;-82
2022/09/14 07:56:42;;;;;;;353.97;274.00;;;;;;;;;;5096393;28;20447;-90
2022/09/14 07:59:11;;;;;;;22.03;20.53;;;;;;;;;;5095848;28;20481;-82
2022/09/14 08:01:40;;;;;;;20.97;19.60;;;;;;;;;;5095423;28;20438;-82
2022/09/14 08:04:08;;;;;;;21.57;19.87;;;;;;;;;;5095637;28;20513;-81
2022/09/14 08:06:36;;;;;;;22.27;20.67;;;;;;;;;;5095271;28;20452;-81
2022/09/14 08:09:06;;;;;;;21.00;19.90;;;;;;;;;;5095649;28;20948;-83
2022/09/14 08:11:34;;;;;;;20.57;19.27;;;;;;;;;;5111595;28;20475;-84
2022/09/14 08:14:02;;;;;;;26.17;20.13;;;;;;;;;;5116249;28;20551;-83
2022/09/14 08:16:30;;;;;;;22.20;20.60;;;;;;;;;;5115091;28;20437;-84
2022/09/14 08:19:00;;;;;;;21.50;19.93;;;;;;;;;;5116184;28;20525;-86
2022/09/14 08:21:28;;;;;;;21.30;19.63;;;;;;;;;;5115689;28;20931;-86
2022/09/14 08:23:56;;;;;;;21.07;19.60;;;;;;;;;;5117660;28;20994;-84
2022/09/14 08:26:25;;;;;;;21.57;19.70;;;;;;;;;;5120433;28;20453;-83
2022/09/14 08:28:53;;;;;;;23.37;21.17;;;;;;;;;;5119481;28;20474;-81
2022/09/14 08:31:23;;;;;;;23.57;21.27;;;;;;;;;;5119527;28;20897;-81
2022/09/14 08:33:51;;;;;;;21.07;19.87;;;;;;;;;;5119944;28;20476;-81
2022/09/14 08:36:20;;;;;;;20.80;19.60;;;;;;;;;;5119477;28;20421;-81
2022/09/14 08:38:48;;;;;;;21.03;19.70;;;;;;;;;;5119622;28;20469;-81
2022/09/14 08:41:25;;;;;;;20.47;19.33;;;;;;;;;;5119451;28;20410;-80
2022/09/14 08:43:53;;;;;;;21.30;19.90;;;;;;;;;;5119756;28;20868;-81
2022/09/14 08:46:26;;;;;;;21.60;20.20;;;;;;;;;;5119683;28;20451;-83
2022/09/14 08:48:54;;;;;;;21.13;19.80;;;;;;;;;;5119738;28;20448;-83
2022/09/14 08:51:23;;;;;;;22.37;20.63;;;;;;;;;;5119205;28;20439;-83
2022/09/14 08:53:52;;;;;;;23.57;21.97;;;;;;;;;;5119420;27;20452;-83
2022/09/14 08:56:21;;;;;;;21.90;20.47;;;;;;;;;;5119682;28;20431;-83
2022/09/14 08:58:54;;;;;;;21.03;19.70;;;;;;;;;;5119087;28;20977;-83
2022/09/14 09:01:24;;;;;;;20.83;19.40;;;;;;;;;;5119379;28;20389;-83
2022/09/14 09:04:02;;;;;;;23.30;20.80;;;;;;;;;;5118769;28;20510;-83
2022/09/14 09:06:33;;;;;;;20.17;18.70;;;;;;;;;;5119272;28;20421;-82
2022/09/14 09:09:04;;;;;;;21.57;19.83;;;;;;;;;;5119561;28;20549;-83
2022/09/14 09:11:38;;;;;;;21.70;19.87;;;;;;;;;;5119114;28;20454;-83
2022/09/14 09:14:09;;;;;;;21.07;19.33;;;;;;;;;;5119683;28;20456;-86
2022/09/14 09:16:38;;;;;;;20.33;19.13;;;;;;;;;;5118703;27;20544;-83
2022/09/14 09:19:07;;;;;;;21.63;20.00;;;;;;;;;;5119426;28;20439;-82
2022/09/14 09:21:39;;;;;;;21.20;19.70;;;;;;;;;;5118486;28;20452;-83
2022/09/14 09:24:15;;;;;;;21.97;20.10;;;;;;;;;;5117993;28;20449;-87
2022/09/14 09:26:42;;;;;;;22.00;20.70;;;;;;;;;;5118600;28;20433;-87
2022/09/14 09:29:10;;;;;;;22.40;20.60;;;;;;;;;;5118426;28;20473;-82
2022/09/14 09:31:42;;;;;;;20.83;19.63;;;;;;;;;;5118748;28;20502;-82
2022/09/14 09:34:10;;;;;;;20.40;19.10;;;;;;;;;;5117891;28;20484;-82
2022/09/14 09:36:50;;;;;;;20.07;18.97;;;;;;;;;;5117983;28;20434;-82
2022/09/14 09:39:17;;;;;;;22.10;20.33;;;;;;;;;;5118446;28;20466;-82
2022/09/14 09:41:46;;;;;;;23.77;21.90;;;;;;;;;;5118270;28;20442;-82
2022/09/14 09:44:13;;;;;;;21.13;19.63;;;;;;;;;;5118391;28;20443;-82
2022/09/14 09:46:45;;;;;;;20.50;19.20;;;;;;;;;;5117912;28;20813;-81
2022/09/14 09:49:17;;;;;;;21.67;20.37;;;;;;;;;;5118179;28;20464;-82
2022/09/14 09:51:45;;;;;;;417.00;365.73;;;;;;;;;;5118005;28;20450;-82
2022/09/14 09:54:22;;;;;;;21.00;19.43;;;;;;;;;;5117525;28;20542;-82
2022/09/14 09:56:52;;;;;;;20.70;19.60;;;;;;;;;;5118003;28;20807;-87
2022/09/14 09:59:22;;;;;;;20.67;19.57;;;;;;;;;;5117057;27;20474;-82
2022/09/14 10:01:51;;;;;;;22.10;20.27;;;;;;;;;;5116941;28;20408;-85
2022/09/14 10:04:19;;;;;;;25.03;23.53;;;;;;;;;;5117271;28;20432;-85
2022/09/14 10:06:47;;;;;;;21.03;19.73;;;;;;;;;;5116779;28;20791;-85
2022/09/14 10:09:16;;;;;;;490.53;391.07;;;;;;;;;;5117072;27;20839;-84
2022/09/14 10:11:46;;;;;;;494.50;375.00;;;;;;;;;;5116319;28;20463;-86
2022/09/14 10:14:24;;;;;;;494.90;398.97;;;;;;;;;;5116788;28;20491;-81
2022/09/14 10:16:51;;;;;;;479.87;352.77;;;;;;;;;;5117282;28;20477;-82
2022/09/14 10:19:21;;;;;;;412.93;322.67;;;;;;;;;;5116974;28;20468;-82
2022/09/14 10:22:02;;;;;;;475.83;345.77;;;;;;;;;;5116552;28;20927;-82
2022/09/14 10:24:29;;;;;;;474.77;339.03;;;;;;;;;;5117297;28;20421;-82
2022/09/14 10:26:58;;;;;;;476.03;344.77;;;;;;;;;;5116579;28;20455;-82
2022/09/14 10:29:29;;;;;;;498.17;399.77;;;;;;;;;;5116574;28;20466;-82
2022/09/14 10:32:00;;;;;;;488.40;384.80;;;;;;;;;;5116227;28;20433;-82
2022/09/14 10:34:27;;;;;;;484.07;365.63;;;;;;;;;;5116057;28;20980;-82
2022/09/14 10:36:59;;;;;;;475.53;401.60;;;;;;;;;;5116612;27;20447;-82
2022/09/14 10:39:30;;;;;;;487.27;366.10;;;;;;;;;;5116218;28;20461;-82
2022/09/14 10:42:00;;;;;;;484.13;367.90;;;;;;;;;;5116381;28;20898;-82
2022/09/14 10:44:43;;;;;;;387.90;327.83;;;;;;;;;;5116240;28;20521;-82
2022/09/14 10:47:21;;;;;;;481.67;357.70;;;;;;;;;;5115428;28;20516;-81
2022/09/14 10:49:56;;;;;;;24.37;22.17;;;;;;;;;;5116411;28;20988;-82
2022/09/14 10:52:25;;;;;;;486.53;381.80;;;;;;;;;;5115595;28;20418;-81
2022/09/14 10:54:59;;;;;;;483.30;368.27;;;;;;;;;;5115255;28;20489;-82
2022/09/14 10:57:31;;;;;;;490.13;381.30;;;;;;;;;;5115849;28;20415;-82
2022/09/14 11:00:02;;;;;;;25.63;23.97;;;;;;;;;;5116013;27;20472;-81
2022/09/14 11:02:47;;;;;;;495.07;409.63;;;;;;;;;;5115597;28;20752;-81
2022/09/14 11:05:16;;;;;;;106.37;102.03;;;;;;;;;;5115448;28;20913;-81
2022/09/14 11:07:50;;;;;;;485.27;392.17;;;;;;;;;;5115728;28;20430;-81
2022/09/14 11:10:21;;;;;;;494.53;387.57;;;;;;;;;;5115632;28;20834;-80
2022/09/14 11:12:56;;;;;;;491.33;383.80;;;;;;;;;;5115299;28;20794;-81
2022/09/14 11:15:28;;;;;;;490.07;373.40;;;;;;;;;;5115455;28;20488;-81
2022/09/14 11:18:02;;;;;;;497.03;400.70;;;;;;;;;;5116330;28;20429;-81
2022/09/14 11:20:34;;;;;;;490.57;378.17;;;;;;;;;;5116479;28;20861;-82
2022/09/14 11:23:06;;;;;;;422.73;337.47;;;;;;;;;;5118682;28;20811;-74
2022/09/14 11:25:40;;;;;;;20.33;18.80;;;;;;;;;;5115565;28;20431;-78
2022/09/14 11:28:11;;;;;;;22.00;19.93;;;;;;;;;;5115573;28;20445;-77
2022/09/14 11:30:41;;;;;;;367.47;328.47;;;;;;;;;;5116280;28;20427;-78
2022/09/14 11:33:13;;;;;;;20.50;19.23;;;;;;;;;;5116108;28;20487;-80
2022/09/14 11:35:44;;;;;;;20.23;18.93;;;;;;;;;;5115352;28;20484;-82
2022/09/14 11:38:13;;;;;;;22.50;20.77;;;;;;;;;;5115082;28;20989;-81
2022/09/14 11:40:42;;;;;;;22.60;20.60;;;;;;;;;;5117653;28;20474;-80
2022/09/14 11:43:14;;;;;;;22.37;20.63;;;;;;;;;;5115024;28;20409;-78
2022/09/14 11:45:43;;;;;;;20.93;19.63;;;;;;;;;;5115050;27;20472;-79
2022/09/14 11:48:12;;;;;;;20.70;19.40;;;;;;;;;;5115386;28;20481;-81
2022/09/14 11:50:43;;;;;;;21.67;20.10;;;;;;;;;;5114598;28;20432;-78
2022/09/14 11:53:11;;;;;;;22.17;20.20;;;;;;;;;;5114360;28;20527;-78
2022/09/14 11:55:42;;;;;;;20.57;19.03;;;;;;;;;;5114415;28;20469;-78
2022/09/14 11:58:17;;;;;;;22.17;20.17;;;;;;;;;;5114812;28;20408;-78
2022/09/14 12:00:46;;;;;;;20.90;19.60;;;;;;;;;;5114336;28;20440;-78
2022/09/14 12:03:16;;;;;;;20.43;19.13;;;;;;;;;;5114026;28;20451;-78
2022/09/14 12:05:44;;;;;;;20.80;19.60;;;;;;;;;;5115081;28;20837;-79
2022/09/14 12:08:37;;;;;;;19.97;18.77;;;;;;;;;;5114700;28;20823;-77
2022/09/14 12:11:25;;;;;;;24.03;21.73;;;;;;;;;;5114484;28;20443;-77
2022/09/14 12:14:07;;;;;;;21.40;19.70;;;;;;;;;;5109770;28;20439;-80
2022/09/14 12:16:56;;;;;;;20.47;18.87;;;;;;;;;;5114307;28;20484;-79
2022/09/14 12:19:26;;;;;;;21.30;19.90;;;;;;;;;;5115212;28;20463;-82
2022/09/14 12:21:54;;;;;;;21.47;20.27;;;;;;;;;;5116610;28;20941;-82
2022/09/14 12:24:23;;;;;;;21.13;19.37;;;;;;;;;;5116071;28;20431;-81
2022/09/14 12:26:51;;;;;;;23.00;20.60;;;;;;;;;;5116806;28;20434;-81
2022/09/14 12:29:29;;;;;;;20.20;18.70;;;;;;;;;;5117347;28;20868;-81
2022/09/14 12:32:06;;;;;;;19.53;18.30;;;;;;;;;;5117008;28;20442;-81
2022/09/14 12:34:34;;;;;;;19.77;18.50;;;;;;;;;;5117101;28;20452;-81
2022/09/14 12:37:28;;;;;;;20.27;19.17;;;;;;;;;;5115954;28;20439;-81
2022/09/14 12:40:24;;;;;;;21.20;19.87;;;;;;;;;;5117800;28;20527;-81
2022/09/14 12:42:51;;;;;;;20.83;19.23;;;;;;;;;;5115216;28;20456;-81
2022/09/14 12:45:37;;;;;;;20.27;18.97;;;;;;;;;;5116988;28;20450;-86
2022/09/14 12:48:08;;;;;;;27.33;25.97;;;;;;;;;;5115189;28;20452;-81
2022/09/14 12:50:37;;;;;;;19.63;18.43;;;;;;;;;;5115476;28;20419;-80
2022/09/14 12:53:14;;;;;;;19.70;18.70;;;;;;;;;;5114732;28;20460;-81
2022/09/14 12:55:48;;;;;;;21.13;19.77;;;;;;;;;;5115827;28;20821;-81
2022/09/14 12:58:21;;;;;;;20.30;18.63;;;;;;;;;;5115988;28;20442;-80
2022/09/14 13:00:53;;;;;;;21.23;19.63;;;;;;;;;;5116252;28;20380;-80
2022/09/14 13:03:34;;;;;;;20.60;19.53;;;;;;;;;;5115490;28;20438;-81
2022/09/14 13:06:04;;;;;;;20.90;19.60;;;;;;;;;;5115721;28;20422;-81
2022/09/14 13:08:33;;;;;;;96.77;92.97;;;;;;;;;;5117358;28;20525;-81
2022/09/14 13:11:00;;;;;;;21.23;19.80;;;;;;;;;;5120083;28;20447;-80
2022/09/14 13:13:31;;;;;;;21.67;20.17;;;;;;;;;;5119956;28;20435;-80
2022/09/14 13:16:00;;;;;;;20.20;18.80;;;;;;;;;;5127748;27;20492;-81
2022/09/14 13:18:33;;;;;;;21.07;19.67;;;;;;;;;;5130174;28;20478;-80
2022/09/14 13:21:02;;;;;;;19.90;18.60;;;;;;;;;;5123268;28;20440;-81
2022/09/14 13:23:31;;;;;;;19.43;18.23;;;;;;;;;;5119400;28;20438;-85
2022/09/14 13:25:59;;;;;;;20.13;19.03;;;;;;;;;;5118737;28;20972;-83
2022/09/14 13:28:28;;;;;;;20.10;18.80;;;;;;;;;;5118048;28;20461;-80
2022/09/14 13:30:57;;;;;;;20.30;18.60;;;;;;;;;;5117235;28;20423;-80
2022/09/14 13:33:24;;;;;;;19.53;18.03;;;;;;;;;;5118039;28;20863;-79
2022/09/14 13:35:55;;;;;;;19.10;17.90;;;;;;;;;;5118037;28;21014;-79
2022/09/14 13:38:24;;;;;;;18.53;17.53;;;;;;;;;;5118162;28;20486;-79
2022/09/14 13:40:52;;;;;;;19.47;18.17;;;;;;;;;;5117910;28;20809;-80
2022/09/14 13:43:20;;;;;;;21.10;19.60;;;;;;;;;;5118012;28;20429;-79
2022/09/14 13:45:48;;;;;;;20.07;18.77;;;;;;;;;;5117795;28;20419;-79
2022/09/14 13:48:17;;;;;;;19.23;17.87;;;;;;;;;;5117123;28;20431;-79
2022/09/14 13:50:45;;;;;;;18.67;17.60;;;;;;;;;;5117461;28;20440;-79
2022/09/14 13:53:27;;;;;;;19.53;18.10;;;;;;;;;;5117051;28;20428;-79
2022/09/14 13:55:55;;;;;;;21.23;19.93;;;;;;;;;;5116841;28;20457;-79
2022/09/14 13:58:24;;;;;;;20.37;18.63;;;;;;;;;;5117287;28;20473;-78
2022/09/14 14:00:53;;;;;;;20.07;18.57;;;;;;;;;;5117246;28;20432;-80
2022/09/14 14:03:25;;;;;;;21.33;19.80;;;;;;;;;;5116936;28;20497;-80
2022/09/14 14:05:53;;;;;;;22.50;20.20;;;;;;;;;;5117136;28;20425;-79
2022/09/14 14:08:26;;;;;;;28.47;21.70;;;;;;;;;;5117193;28;20457;-79
2022/09/14 14:10:54;;;;;;;22.27;20.03;;;;;;;;;;5116955;28;20462;-79
2022/09/14 14:13:27;;;;;;;23.90;21.77;;;;;;;;;;5115718;28;20932;-79
2022/09/14 14:15:54;;;;;;;23.70;21.10;;;;;;;;;;5116759;28;20788;-79
2022/09/14 14:18:31;;;;;;;21.10;19.63;;;;;;;;;;5116149;28;20423;-79
2022/09/14 14:21:05;;;;;;;23.80;21.37;;;;;;;;;;5116276;28;20477;-80
2022/09/14 14:23:33;;;;;;;24.47;20.97;;;;;;;;;;5116626;27;20481;-80